createdAt,value
2023-01-06T00:00:42.405Z,8.00
2023-01-06T00:03:21.011Z,8.90
2023-01-06T00:05:50.737Z,8.90
2023-01-06T00:08:23.749Z,9.10
2023-01-06T00:10:56.842Z,8.90
2023-01-06T00:13:26.534Z,7.70
2023-01-06T00:16:08.867Z,8.20
2023-01-06T00:18:44.141Z,7.90
2023-01-06T00:21:17.329Z,13.80
2023-01-06T00:23:49.184Z,9.50
2023-01-06T00:26:23.449Z,10.10
2023-01-06T00:28:55.823Z,9.70
2023-01-06T00:31:25.834Z,8.30
2023-01-06T00:33:58.528Z,9.60
2023-01-06T00:36:28.753Z,7.30
2023-01-06T00:39:06.817Z,9.00
2023-01-06T00:42:00.080Z,9.20
2023-01-06T00:44:34.637Z,8.40
2023-01-06T00:47:08.395Z,8.60
2023-01-06T00:49:39.149Z,9.10
2023-01-06T00:52:17.431Z,9.50
2023-01-06T00:54:57.138Z,12.70
2023-01-06T00:57:29.885Z,11.80
2023-01-06T01:00:02.809Z,8.00
2023-01-06T01:02:33.215Z,10.90
2023-01-06T01:05:03.304Z,9.20
2023-01-06T01:07:44.189Z,6.80
2023-01-06T01:10:16.979Z,8.90
2023-01-06T01:12:51.513Z,7.80
2023-01-06T01:15:23.435Z,8.50
2023-01-06T01:17:56.258Z,8.50
2023-01-06T01:20:25.789Z,6.50
2023-01-06T01:22:55.097Z,5.70
2023-01-06T01:25:26.132Z,7.60
2023-01-06T01:27:55.431Z,5.40
2023-01-06T01:30:24.764Z,6.30
2023-01-06T01:32:53.980Z,5.40
2023-01-06T01:35:27.812Z,5.50
2023-01-06T01:37:58.099Z,6.10
2023-01-06T01:40:27.803Z,6.50
2023-01-06T01:42:57.396Z,5.20
2023-01-06T01:45:30.274Z,4.00
2023-01-06T01:48:12.071Z,2.80
2023-01-06T01:50:53.957Z,2.70
2023-01-06T01:53:29.273Z,1.90
2023-01-06T01:56:06.879Z,2.50
2023-01-06T01:58:49.321Z,2.80
2023-01-06T02:01:20.263Z,2.40
2023-01-06T02:03:51.299Z,2.90
2023-01-06T02:06:27.864Z,2.20
2023-01-06T02:09:08.366Z,1.70
2023-01-06T02:11:40.963Z,2.80
2023-01-06T02:14:16.687Z,2.90
2023-01-06T02:17:22.198Z,3.80
2023-01-06T02:20:32.176Z,3.70
2023-01-06T02:23:33.155Z,2.90
2023-01-06T02:26:43.740Z,3.50
2023-01-06T02:29:31.561Z,4.30
2023-01-06T02:32:39.643Z,3.30
2023-01-06T02:35:25.248Z,3.80
2023-01-06T02:38:20.315Z,4.50
2023-01-06T02:41:24.480Z,2.40
2023-01-06T02:44:14.831Z,3.90
2023-01-06T02:46:52.589Z,4.80
2023-01-06T02:49:47.734Z,4.90
2023-01-06T02:52:45.002Z,4.20
2023-01-06T02:55:35.350Z,6.40
2023-01-06T02:58:07.507Z,4.90
2023-01-06T03:01:03.177Z,5.10
2023-01-06T03:03:38.469Z,3.50
2023-01-06T03:06:22.004Z,7.90
2023-01-06T03:08:55.506Z,5.60
2023-01-06T03:11:33.185Z,4.60
2023-01-06T03:14:13.347Z,7.10
2023-01-06T03:16:45.327Z,5.10
2023-01-06T03:19:16.295Z,6.00
2023-01-06T03:21:51.698Z,5.30
2023-01-06T03:24:24.435Z,6.30
2023-01-06T03:26:55.730Z,5.00
2023-01-06T03:29:26.845Z,6.70
2023-01-06T03:32:14.924Z,8.40
2023-01-06T03:35:17.907Z,7.60
2023-01-06T03:41:15.210Z,5.50
2023-01-06T03:43:51.743Z,6.80
2023-01-06T03:46:38.726Z,7.00
2023-01-06T03:49:13.147Z,7.10
2023-01-06T03:52:05.348Z,6.20
2023-01-06T03:57:39.704Z,11.20
2023-01-06T04:00:21.721Z,10.30
2023-01-06T04:03:13.928Z,12.90
2023-01-06T04:05:45.673Z,10.60
2023-01-06T04:08:16.344Z,8.80
2023-01-06T04:13:19.868Z,56.90
2023-01-06T04:15:50.279Z,51.20
2023-01-06T04:18:19.995Z,34.00
2023-01-06T04:20:50.715Z,37.80
2023-01-06T04:23:25.417Z,95.10
2023-01-06T04:25:56.686Z,111.10
2023-01-06T04:28:35.172Z,111.90
2023-01-06T04:31:05.755Z,101.00
2023-01-06T04:33:37.081Z,94.60
2023-01-06T04:36:11.654Z,88.60
2023-01-06T04:38:47.946Z,83.00
2023-01-06T04:41:17.713Z,85.60
2023-01-06T04:43:47.676Z,89.30
2023-01-06T04:46:17.953Z,86.50
2023-01-06T04:48:47.901Z,75.00
2023-01-06T04:51:17.595Z,82.00
2023-01-06T04:53:48.080Z,61.00
2023-01-06T04:56:17.878Z,68.50
2023-01-06T04:58:48.824Z,68.50
2023-01-06T05:03:51.981Z,53.00
2023-01-06T05:06:21.859Z,48.30
2023-01-06T05:08:54.707Z,49.10
2023-01-06T05:11:26.490Z,43.70
2023-01-06T05:13:56.125Z,33.80
2023-01-06T05:16:31.973Z,39.40
2023-01-06T05:19:04.356Z,44.40
2023-01-06T05:21:37.058Z,24.50
2023-01-06T05:24:11.273Z,27.80
2023-01-06T05:26:44.038Z,30.20
2023-01-06T05:29:17.873Z,33.30
2023-01-06T05:31:50.551Z,33.70
2023-01-06T05:34:20.446Z,29.10
2023-01-06T05:36:51.401Z,28.10
2023-01-06T05:39:23.586Z,22.80
2023-01-06T05:44:29.023Z,25.40
2023-01-06T05:46:58.918Z,20.40
2023-01-06T05:49:29.503Z,23.40
2023-01-06T05:52:02.248Z,22.80
2023-01-06T05:54:39.301Z,23.50
2023-01-06T05:57:10.530Z,32.90
2023-01-06T05:59:47.815Z,45.60
2023-01-06T06:02:18.252Z,32.70
2023-01-06T06:04:48.052Z,26.30
2023-01-06T06:07:20.747Z,28.00
2023-01-06T06:09:53.184Z,28.30
2023-01-06T06:13:02.999Z,34.20
2023-01-06T06:15:40.519Z,34.20
2023-01-06T06:20:49.931Z,33.20
2023-01-06T06:23:23.271Z,30.40
2023-01-06T06:26:06.043Z,32.70
2023-01-06T06:28:41.376Z,24.80
2023-01-06T06:31:24.447Z,22.20
2023-01-06T06:34:00.843Z,28.00
2023-01-06T06:36:48.651Z,24.40
2023-01-06T06:39:35.386Z,24.20
2023-01-06T06:42:30.169Z,26.20
2023-01-06T06:45:04.348Z,26.50
2023-01-06T06:47:33.865Z,25.60
2023-01-06T06:50:04.003Z,25.70
2023-01-06T06:52:40.407Z,24.60
2023-01-06T06:55:13.508Z,23.20
2023-01-06T06:58:09.465Z,21.50
2023-01-06T07:00:58.478Z,25.30
2023-01-06T07:04:25.282Z,20.20
2023-01-06T07:07:02.111Z,21.70
2023-01-06T07:09:34.227Z,17.60
2023-01-06T07:12:40.533Z,20.80
2023-01-06T07:15:21.207Z,14.40
2023-01-06T07:18:02.604Z,19.20
2023-01-06T07:20:39.307Z,20.30
2023-01-06T07:23:10.646Z,16.00
2023-01-06T07:25:42.328Z,16.60
2023-01-06T07:28:12.232Z,11.50
2023-01-06T07:30:42.196Z,10.40
2023-01-06T07:33:12.080Z,10.10
2023-01-06T07:35:42.055Z,7.80
2023-01-06T07:38:21.973Z,12.90
2023-01-06T07:40:54.024Z,13.60
2023-01-06T07:43:24.263Z,19.10
2023-01-06T07:46:02.826Z,17.40
2023-01-06T07:48:32.571Z,15.80
2023-01-06T07:51:05.364Z,17.20
2023-01-06T07:53:35.940Z,15.20
2023-01-06T07:56:07.656Z,15.60
2023-01-06T07:58:40.337Z,15.90
2023-01-06T08:01:13.079Z,22.70
2023-01-06T08:03:42.501Z,23.00
2023-01-06T08:06:13.065Z,28.40
2023-01-06T08:08:46.086Z,17.90
2023-01-06T08:11:16.135Z,19.50
2023-01-06T08:13:49.085Z,15.60
2023-01-06T08:16:19.063Z,12.80
2023-01-06T08:18:49.345Z,15.60
2023-01-06T08:21:25.116Z,16.80
2023-01-06T08:24:03.119Z,18.10
2023-01-06T08:26:37.360Z,14.50
2023-01-06T08:29:10.466Z,20.90
2023-01-06T08:34:11.776Z,19.70
2023-01-06T08:36:43.455Z,18.10
2023-01-06T08:39:17.865Z,15.40
2023-01-06T08:41:52.222Z,15.30
2023-01-06T08:44:22.044Z,17.10
2023-01-06T08:46:52.302Z,20.50
2023-01-06T08:49:28.339Z,12.90
2023-01-06T08:51:59.910Z,16.10
2023-01-06T08:54:34.316Z,20.90
2023-01-06T08:57:09.095Z,19.00
2023-01-06T08:59:40.069Z,18.10
2023-01-06T09:02:14.694Z,24.10
2023-01-06T09:04:49.806Z,27.90
2023-01-06T09:09:52.421Z,25.00
2023-01-06T09:12:25.273Z,20.80
2023-01-06T09:14:59.926Z,21.30
2023-01-06T09:17:30.778Z,44.50
2023-01-06T09:20:00.415Z,49.90
2023-01-06T09:22:32.739Z,40.40
2023-01-06T09:27:40.420Z,27.70
2023-01-06T09:32:42.951Z,25.90
2023-01-06T09:35:22.462Z,32.00
2023-01-06T09:38:04.303Z,29.30
2023-01-06T09:40:54.357Z,37.40
2023-01-06T09:44:03.462Z,37.50
2023-01-06T09:46:39.459Z,38.60
2023-01-06T09:49:29.491Z,40.40
2023-01-06T09:52:47.151Z,38.80
2023-01-06T09:55:27.731Z,33.20
2023-01-06T09:58:46.572Z,38.60
2023-01-06T10:01:26.047Z,29.10
2023-01-06T10:03:57.573Z,28.10
2023-01-06T10:06:54.221Z,28.70
2023-01-06T10:09:40.564Z,33.50
2023-01-06T10:12:32.944Z,25.60
2023-01-06T10:15:45.897Z,24.00
2023-01-06T10:21:11.275Z,40.20
2023-01-06T10:24:31.207Z,35.10
2023-01-06T10:27:30.942Z,14.80
2023-01-06T10:30:06.328Z,15.50
2023-01-06T10:32:42.780Z,10.90
2023-01-06T10:35:19.437Z,13.70
2023-01-06T10:37:53.139Z,19.70
2023-01-06T10:40:32.490Z,19.70
2023-01-06T10:43:15.505Z,19.10
2023-01-06T10:45:51.868Z,27.10
2023-01-06T10:48:33.920Z,26.30
2023-01-06T10:51:45.341Z,19.80
2023-01-06T10:54:23.112Z,27.90
2023-01-06T10:57:01.599Z,26.60
2023-01-06T10:59:31.731Z,28.90
2023-01-06T11:04:53.280Z,24.60
2023-01-06T11:07:25.096Z,19.20
2023-01-06T11:09:55.517Z,15.30
2023-01-06T11:12:32.771Z,12.90
2023-01-06T11:15:09.182Z,13.10
2023-01-06T11:17:46.226Z,15.00
2023-01-06T11:20:16.886Z,16.50
2023-01-06T11:22:49.080Z,15.90
2023-01-06T11:25:35.399Z,17.10
2023-01-06T11:28:19.979Z,24.10
2023-01-06T11:30:56.128Z,29.00
2023-01-06T11:33:29.071Z,23.20
2023-01-06T11:36:14.360Z,22.60
2023-01-06T11:39:23.112Z,20.50
2023-01-06T11:41:55.411Z,20.10
2023-01-06T11:44:41.752Z,20.30
2023-01-06T11:47:23.278Z,22.00
2023-01-06T11:49:57.236Z,23.20
2023-01-06T11:52:33.077Z,19.90
2023-01-06T11:55:14.046Z,21.70
2023-01-06T11:58:11.293Z,22.50
2023-01-06T12:01:11.236Z,23.80
2023-01-06T12:03:51.216Z,20.80
2023-01-06T12:06:34.308Z,22.40
2023-01-06T12:09:06.398Z,27.30
2023-01-06T12:11:52.481Z,28.20
2023-01-06T12:14:40.500Z,25.50
2023-01-06T12:17:17.852Z,24.50
2023-01-06T12:19:57.825Z,23.00
2023-01-06T12:22:39.722Z,22.20
2023-01-06T12:25:33.398Z,20.50
2023-01-06T12:28:28.555Z,18.30
2023-01-06T12:31:35.586Z,21.10
2023-01-06T12:34:16.438Z,19.90
2023-01-06T12:36:56.601Z,35.20
2023-01-06T12:39:59.778Z,23.30
2023-01-06T12:42:58.942Z,20.70
2023-01-06T12:45:57.105Z,15.30
2023-01-06T12:48:53.073Z,28.00
2023-01-06T12:51:39.777Z,20.00
2023-01-06T12:54:29.516Z,18.70
2023-01-06T12:57:17.759Z,16.60
2023-01-06T13:00:08.155Z,14.50
2023-01-06T13:03:20.632Z,15.60
2023-01-06T13:09:11.622Z,16.60
2023-01-06T13:12:06.554Z,18.10
2023-01-06T13:14:59.136Z,23.00
2023-01-06T13:17:42.293Z,54.20
2023-01-06T13:20:42.551Z,103.50
2023-01-06T13:24:04.467Z,170.60
2023-01-06T13:27:21.037Z,95.30
2023-01-06T13:30:05.103Z,53.20
2023-01-06T13:33:51.406Z,31.00
2023-01-06T13:37:17.268Z,42.20
2023-01-06T13:40:01.751Z,39.20
2023-01-06T13:43:16.253Z,32.20
2023-01-06T13:46:06.317Z,34.00
2023-01-06T13:49:07.958Z,30.00
2023-01-06T13:51:51.898Z,34.80
2023-01-06T13:54:47.866Z,34.20
2023-01-06T13:57:35.889Z,30.60
2023-01-06T14:00:16.559Z,27.80
2023-01-06T14:05:45.950Z,37.90
2023-01-06T14:08:31.073Z,33.30
2023-01-06T14:11:33.747Z,35.10
2023-01-06T14:14:29.913Z,36.60
2023-01-06T14:16:59.506Z,33.40
2023-01-06T14:19:38.651Z,40.00
2023-01-06T14:22:20.246Z,45.50
2023-01-06T14:24:53.778Z,30.70
2023-01-06T14:27:47.465Z,36.80
2023-01-06T14:30:25.369Z,44.00
2023-01-06T14:33:08.796Z,88.80
2023-01-06T14:35:48.617Z,34.60
2023-01-06T14:38:42.671Z,30.80
2023-01-06T14:41:45.568Z,39.10
2023-01-06T14:44:20.136Z,42.40
2023-01-06T14:46:59.954Z,43.90
2023-01-06T14:50:06.542Z,56.40
2023-01-06T14:52:42.877Z,47.50
2023-01-06T14:55:21.761Z,46.90
2023-01-06T14:57:51.443Z,53.20
2023-01-06T15:00:30.625Z,53.20
2023-01-06T15:03:05.544Z,43.00
2023-01-06T15:05:46.009Z,36.00
2023-01-06T15:08:20.202Z,45.80
2023-01-06T15:10:52.176Z,68.60
2023-01-06T15:13:30.644Z,69.30
2023-01-06T15:16:48.910Z,72.70
2023-01-06T15:19:28.393Z,41.10
2023-01-06T15:22:01.017Z,66.60
2023-01-06T15:24:49.905Z,46.60
2023-01-06T15:27:57.664Z,35.20
2023-01-06T15:31:32.721Z,38.50
2023-01-06T15:34:33.619Z,29.50
2023-01-06T15:37:21.824Z,34.50
2023-01-06T15:39:56.630Z,46.90
2023-01-06T15:42:37.506Z,37.30
2023-01-06T15:45:28.664Z,33.10
2023-01-06T15:48:15.096Z,38.80
2023-01-06T15:50:51.422Z,59.30
2023-01-06T15:53:36.539Z,49.10
2023-01-06T15:56:21.159Z,32.30
2023-01-06T15:58:57.252Z,35.50
2023-01-06T16:01:38.360Z,40.70
2023-01-06T16:04:21.100Z,42.30
2023-01-06T16:06:54.493Z,37.00
2023-01-06T16:09:30.759Z,43.20
2023-01-06T16:12:22.381Z,41.40
2023-01-06T16:15:13.041Z,44.20
2023-01-06T16:17:47.768Z,43.60
2023-01-06T16:20:25.187Z,42.40
2023-01-06T16:22:58.675Z,38.10
2023-01-06T16:25:38.219Z,38.70
2023-01-06T16:28:35.429Z,39.60
2023-01-06T16:31:13.868Z,42.10
2023-01-06T16:33:57.406Z,38.50
2023-01-06T16:36:38.785Z,42.00
2023-01-06T16:39:08.860Z,41.30
2023-01-06T16:44:34.822Z,42.70
2023-01-06T16:47:19.612Z,43.00
2023-01-06T16:50:26.288Z,38.70
2023-01-06T16:53:11.359Z,42.50
2023-01-06T16:55:51.375Z,43.10
2023-01-06T16:58:35.854Z,48.80
2023-01-06T17:01:30.022Z,58.90
2023-01-06T17:04:02.418Z,87.00
2023-01-06T17:07:11.670Z,91.80
2023-01-06T17:10:01.642Z,51.90
2023-01-06T17:13:32.088Z,34.70
2023-01-06T17:16:45.259Z,39.90
2023-01-06T17:19:46.533Z,35.80
2023-01-06T17:22:56.955Z,35.60
2023-01-06T17:26:03.453Z,43.20
2023-01-06T17:36:36.054Z,40.70
2023-01-06T17:39:33.697Z,35.40
2023-01-06T17:42:33.975Z,34.00
2023-01-06T17:45:26.923Z,34.80
2023-01-06T17:49:09.071Z,35.60
2023-01-06T17:52:51.829Z,35.70
2023-01-06T17:55:58.713Z,35.70
2023-01-06T17:58:59.233Z,49.90
2023-01-06T18:04:48.350Z,34.60
2023-01-06T18:07:28.224Z,37.50
2023-01-06T18:10:16.313Z,37.60
2023-01-06T18:16:27.907Z,35.60
2023-01-06T18:19:36.860Z,33.90
2023-01-06T18:22:26.085Z,40.70
2023-01-06T18:25:00.829Z,48.40
2023-01-06T18:27:49.958Z,41.40
2023-01-06T18:33:46.947Z,42.70
2023-01-06T18:36:16.960Z,40.90
2023-01-06T18:41:30.096Z,41.20
2023-01-06T18:44:24.792Z,48.50
2023-01-06T18:46:55.995Z,41.70
2023-01-06T18:49:36.246Z,32.90
2023-01-06T18:55:26.580Z,28.90
2023-01-06T18:58:02.892Z,31.50
2023-01-06T19:00:52.461Z,30.90
2023-01-06T19:03:37.881Z,30.90
2023-01-06T19:06:16.512Z,30.20
2023-01-06T19:08:51.889Z,31.40
2023-01-06T19:11:28.885Z,29.30
2023-01-06T19:14:30.695Z,24.70
2023-01-06T19:17:04.118Z,25.30
2023-01-06T19:19:43.021Z,25.50
2023-01-06T19:22:29.289Z,25.20
2023-01-06T19:25:06.472Z,25.60
2023-01-06T19:28:00.520Z,25.40
2023-01-06T19:31:01.034Z,24.60
2023-01-06T19:36:49.720Z,19.90
2023-01-06T19:39:54.650Z,17.80
2023-01-06T19:42:29.873Z,17.00
2023-01-06T19:45:17.348Z,14.40
2023-01-06T19:47:47.537Z,16.20
2023-01-06T19:50:29.750Z,15.10
2023-01-06T19:53:35.654Z,21.80
2023-01-06T19:56:23.141Z,15.60
2023-01-06T19:59:01.542Z,15.30
2023-01-06T20:01:34.149Z,13.80
2023-01-06T20:04:29.418Z,17.10
2023-01-06T20:07:03.392Z,13.20
2023-01-06T20:09:39.246Z,13.80
2023-01-06T20:12:15.990Z,11.20
2023-01-06T20:14:57.082Z,9.90
2023-01-06T20:17:58.787Z,11.10
2023-01-06T20:20:16.332Z,10.70
2023-01-06T20:22:45.810Z,12.30
2023-01-06T20:25:20.716Z,8.80
2023-01-06T20:27:51.215Z,10.20
2023-01-06T20:30:21.387Z,10.60
2023-01-06T20:32:54.760Z,9.90
2023-01-06T20:35:24.910Z,9.10
2023-01-06T20:37:56.392Z,10.20
2023-01-06T20:40:25.959Z,10.40
2023-01-06T20:42:58.936Z,10.30
2023-01-06T20:45:28.657Z,9.00
2023-01-06T20:47:58.148Z,9.60
2023-01-06T20:50:28.089Z,11.60
2023-01-06T20:52:57.733Z,10.40
2023-01-06T20:55:33.866Z,10.10
2023-01-06T20:58:38.730Z,11.40
2023-01-06T21:01:10.116Z,11.00
2023-01-06T21:03:44.029Z,12.00
2023-01-06T21:06:13.977Z,10.20
2023-01-06T21:08:43.730Z,10.00
2023-01-06T21:11:15.611Z,10.60
2023-01-06T21:13:49.041Z,10.00
2023-01-06T21:16:29.394Z,10.60
2023-01-06T21:19:02.345Z,11.20
2023-01-06T21:21:32.510Z,12.90
2023-01-06T21:24:34.529Z,10.50
2023-01-06T21:27:34.926Z,11.20
2023-01-06T21:30:12.105Z,12.30
2023-01-06T21:32:44.033Z,10.80
2023-01-06T21:35:17.125Z,11.50
2023-01-06T21:37:50.270Z,10.10
2023-01-06T21:40:33.303Z,9.70
2023-01-06T21:43:23.056Z,10.30
2023-01-06T21:45:53.375Z,10.40
2023-01-06T21:48:29.068Z,11.20
2023-01-06T21:50:58.841Z,13.80
2023-01-06T21:53:31.062Z,9.90
2023-01-06T21:58:44.830Z,14.50
2023-01-06T22:01:19.407Z,10.40
2023-01-06T22:03:49.739Z,9.30
2023-01-06T22:06:25.303Z,10.00
2023-01-06T22:09:09.892Z,11.30
2023-01-06T22:11:45.026Z,9.80
2023-01-06T22:14:21.778Z,11.00
2023-01-06T22:17:01.329Z,9.70
2023-01-06T22:19:46.818Z,12.70
2023-01-06T22:22:22.731Z,12.60
2023-01-06T22:24:59.944Z,11.50
2023-01-06T22:27:37.463Z,10.00
2023-01-06T22:30:08.987Z,15.30
2023-01-06T22:32:48.472Z,11.30
2023-01-06T22:35:29.378Z,11.90
2023-01-06T22:38:04.999Z,11.70
2023-01-06T22:40:39.305Z,10.60
2023-01-06T22:43:09.739Z,11.70
2023-01-06T22:45:40.354Z,10.40
2023-01-06T22:48:14.346Z,10.40
2023-01-06T22:51:05.392Z,11.10
2023-01-06T22:53:39.241Z,10.00
2023-01-06T22:56:14.590Z,9.00
2023-01-06T22:58:51.835Z,10.50
2023-01-06T23:01:26.561Z,10.10
2023-01-06T23:04:03.510Z,11.70
2023-01-06T23:06:39.328Z,10.20
2023-01-06T23:09:13.755Z,12.70
2023-01-06T23:11:47.113Z,10.60
2023-01-06T23:14:17.067Z,12.70
2023-01-06T23:16:49.354Z,10.30
2023-01-06T23:19:19.828Z,11.00
2023-01-06T23:21:59.071Z,11.70
2023-01-06T23:24:29.132Z,13.40
2023-01-06T23:27:09.225Z,13.70
2023-01-06T23:29:39.671Z,16.50
2023-01-06T23:32:12.389Z,12.60
2023-01-06T23:34:46.610Z,11.80
2023-01-06T23:37:19.432Z,11.30
2023-01-06T23:39:49.539Z,12.90
2023-01-06T23:42:21.857Z,12.30
2023-01-06T23:47:21.731Z,11.20
2023-01-06T23:49:51.527Z,10.60
2023-01-06T23:52:21.503Z,13.70
2023-01-06T23:54:56.376Z,11.10
2023-01-06T23:57:26.292Z,12.30
2023-01-06T23:59:59.224Z,11.40
